sensor_id;sensor_type;location;lat;lon;timestamp;pressure;altitude;pressure_sealevel;temperature;humidity
64717;BME280;51146;50.274;19.000;2022-07-24T00:02:22;98607.50;;;19.42;62.39
64717;BME280;51146;50.274;19.000;2022-07-24T00:04:52;98609.56;;;19.40;62.50
64717;BME280;51146;50.274;19.000;2022-07-24T00:07:24;98605.47;;;19.36;62.61
64717;BME280;51146;50.274;19.000;2022-07-24T00:09:50;98618.97;;;19.37;62.71
64717;BME280;51146;50.274;19.000;2022-07-24T00:12:17;98610.56;;;19.39;63.11
64717;BME280;51146;50.274;19.000;2022-07-24T00:14:44;98626.16;;;19.38;63.26
64717;BME280;51146;50.274;19.000;2022-07-24T00:17:11;98623.41;;;19.38;63.19
64717;BME280;51146;50.274;19.000;2022-07-24T00:19:37;98632.47;;;19.39;63.42
64717;BME280;51146;50.274;19.000;2022-07-24T00:22:04;98629.75;;;19.39;63.66
64717;BME280;51146;50.274;19.000;2022-07-24T00:24:31;98626.84;;;19.40;63.38
64717;BME280;51146;50.274;19.000;2022-07-24T00:26:58;98624.78;;;19.42;63.42
64717;BME280;51146;50.274;19.000;2022-07-24T00:29:26;98621.19;;;19.42;63.38
64717;BME280;51146;50.274;19.000;2022-07-24T00:31:53;98626.00;;;19.40;63.51
64717;BME280;51146;50.274;19.000;2022-07-24T00:34:20;98621.53;;;19.39;63.47
64717;BME280;51146;50.274;19.000;2022-07-24T00:36:47;98624.97;;;19.33;63.29
64717;BME280;51146;50.274;19.000;2022-07-24T00:39:14;98628.94;;;19.30;63.51
64717;BME280;51146;50.274;19.000;2022-07-24T00:41:40;98630.97;;;19.28;63.46
64717;BME280;51146;50.274;19.000;2022-07-24T00:44:11;98628.59;;;19.25;63.58
64717;BME280;51146;50.274;19.000;2022-07-24T00:46:39;98628.06;;;19.21;63.47
64717;BME280;51146;50.274;19.000;2022-07-24T00:49:09;98637.66;;;19.17;63.38
64717;BME280;51146;50.274;19.000;2022-07-24T00:51:46;98640.56;;;19.16;63.46
64717;BME280;51146;50.274;19.000;2022-07-24T00:54:14;98622.78;;;19.12;63.47
64717;BME280;51146;50.274;19.000;2022-07-24T00:56:42;98629.09;;;19.12;63.52
64717;BME280;51146;50.274;19.000;2022-07-24T00:59:09;98628.78;;;19.07;63.85
64717;BME280;51146;50.274;19.000;2022-07-24T01:01:37;98640.75;;;19.06;63.77
64717;BME280;51146;50.274;19.000;2022-07-24T01:04:04;98636.28;;;19.05;63.52
64717;BME280;51146;50.274;19.000;2022-07-24T01:06:31;98635.13;;;19.07;63.92
64717;BME280;51146;50.274;19.000;2022-07-24T01:08:57;98634.59;;;19.12;63.61
64717;BME280;51146;50.274;19.000;2022-07-24T01:11:24;98645.19;;;19.15;63.34
64717;BME280;51146;50.274;19.000;2022-07-24T01:13:52;98635.63;;;19.11;63.34
64717;BME280;51146;50.274;19.000;2022-07-24T01:16:19;98631.53;;;19.07;63.21
64717;BME280;51146;50.274;19.000;2022-07-24T01:18:45;98627.41;;;19.03;63.23
64717;BME280;51146;50.274;19.000;2022-07-24T01:21:12;98625.00;;;19.00;63.37
64717;BME280;51146;50.274;19.000;2022-07-24T01:23:39;98627.38;;;18.95;63.35
64717;BME280;51146;50.274;19.000;2022-07-24T01:26:07;98632.34;;;18.91;63.06
64717;BME280;51146;50.274;19.000;2022-07-24T01:28:35;98638.84;;;18.82;63.51
64717;BME280;51146;50.274;19.000;2022-07-24T01:31:02;98644.50;;;18.80;63.41
64717;BME280;51146;50.274;19.000;2022-07-24T01:33:29;98639.88;;;18.81;63.61
64717;BME280;51146;50.274;19.000;2022-07-24T01:35:56;98637.16;;;18.81;63.56
64717;BME280;51146;50.274;19.000;2022-07-24T01:38:24;98640.72;;;18.81;63.49
64717;BME280;51146;50.274;19.000;2022-07-24T01:40:50;98639.03;;;18.80;63.50
64717;BME280;51146;50.274;19.000;2022-07-24T01:43:17;98637.16;;;18.81;63.60
64717;BME280;51146;50.274;19.000;2022-07-24T01:45:44;98642.25;;;18.84;63.43
64717;BME280;51146;50.274;19.000;2022-07-24T01:48:11;98633.22;;;18.83;63.22
64717;BME280;51146;50.274;19.000;2022-07-24T01:50:38;98632.53;;;18.81;63.43
64717;BME280;51146;50.274;19.000;2022-07-24T01:53:04;98635.94;;;18.75;63.00
64717;BME280;51146;50.274;19.000;2022-07-24T01:55:31;98635.94;;;18.75;63.03
64717;BME280;51146;50.274;19.000;2022-07-24T01:57:58;98637.16;;;18.73;63.09
64717;BME280;51146;50.274;19.000;2022-07-24T02:00:25;98639.72;;;18.66;63.03
64717;BME280;51146;50.274;19.000;2022-07-24T02:02:52;98634.91;;;18.60;62.78
64717;BME280;51146;50.274;19.000;2022-07-24T02:05:19;98636.44;;;18.54;62.66
64717;BME280;51146;50.274;19.000;2022-07-24T02:07:55;98639.50;;;18.51;62.51
64717;BME280;51146;50.274;19.000;2022-07-24T02:10:22;98636.25;;;18.47;62.24
64717;BME280;51146;50.274;19.000;2022-07-24T02:12:50;98641.25;;;18.44;62.14
64717;BME280;51146;50.274;19.000;2022-07-24T02:15:16;98639.84;;;18.40;61.94
64717;BME280;51146;50.274;19.000;2022-07-24T02:17:51;98643.78;;;18.37;61.87
64717;BME280;51146;50.274;19.000;2022-07-24T02:20:18;98641.41;;;18.34;61.92
64717;BME280;51146;50.274;19.000;2022-07-24T02:22:45;98640.69;;;18.32;61.92
64717;BME280;51146;50.274;19.000;2022-07-24T02:25:13;98651.13;;;18.28;61.94
64717;BME280;51146;50.274;19.000;2022-07-24T02:27:40;98650.44;;;18.26;61.43
64717;BME280;51146;50.274;19.000;2022-07-24T02:30:10;98654.47;;;18.22;61.49
64717;BME280;51146;50.274;19.000;2022-07-24T02:32:37;98655.13;;;18.16;61.24
64717;BME280;51146;50.274;19.000;2022-07-24T02:35:04;98662.13;;;18.10;60.94
64717;BME280;51146;50.274;19.000;2022-07-24T02:37:36;98667.06;;;18.07;61.29
64717;BME280;51146;50.274;19.000;2022-07-24T02:40:04;98666.03;;;18.00;61.22
64717;BME280;51146;50.274;19.000;2022-07-24T02:42:31;98667.56;;;17.94;61.13
64717;BME280;51146;50.274;19.000;2022-07-24T02:44:58;98660.19;;;17.86;61.24
64717;BME280;51146;50.274;19.000;2022-07-24T02:47:25;98661.00;;;17.79;61.04
64717;BME280;51146;50.274;19.000;2022-07-24T02:49:52;98660.63;;;17.73;61.28
64717;BME280;51146;50.274;19.000;2022-07-24T02:52:18;98662.13;;;17.68;61.08
64717;BME280;51146;50.274;19.000;2022-07-24T02:54:45;98661.59;;;17.64;61.05
64717;BME280;51146;50.274;19.000;2022-07-24T02:57:12;98664.47;;;17.63;61.21
64717;BME280;51146;50.274;19.000;2022-07-24T02:59:38;98654.75;;;17.60;61.14
64717;BME280;51146;50.274;19.000;2022-07-24T03:02:06;98672.31;;;17.58;61.20
64717;BME280;51146;50.274;19.000;2022-07-24T03:04:33;98666.34;;;17.54;61.29
64717;BME280;51146;50.274;19.000;2022-07-24T03:06:59;98673.84;;;17.52;61.48
64717;BME280;51146;50.274;19.000;2022-07-24T03:09:26;98664.41;;;17.46;61.79
64717;BME280;51146;50.274;19.000;2022-07-24T03:11:53;98665.41;;;17.45;61.30
64717;BME280;51146;50.274;19.000;2022-07-24T03:14:20;98670.31;;;17.42;61.21
64717;BME280;51146;50.274;19.000;2022-07-24T03:16:47;98672.84;;;17.35;61.91
64717;BME280;51146;50.274;19.000;2022-07-24T03:19:14;98686.78;;;17.32;61.37
64717;BME280;51146;50.274;19.000;2022-07-24T03:21:41;98686.44;;;17.27;61.62
64717;BME280;51146;50.274;19.000;2022-07-24T03:24:15;98687.94;;;17.21;61.69
64717;BME280;51146;50.274;19.000;2022-07-24T03:26:42;98687.41;;;17.18;62.29
64717;BME280;51146;50.274;19.000;2022-07-24T03:29:09;98690.44;;;17.14;62.14
64717;BME280;51146;50.274;19.000;2022-07-24T03:31:36;98689.44;;;17.15;61.66
64717;BME280;51146;50.274;19.000;2022-07-24T03:34:03;98692.31;;;17.14;61.79
64717;BME280;51146;50.274;19.000;2022-07-24T03:36:29;98695.19;;;17.12;62.10
64717;BME280;51146;50.274;19.000;2022-07-24T03:38:56;98688.53;;;17.15;61.72
64717;BME280;51146;50.274;19.000;2022-07-24T03:41:23;98694.34;;;17.12;62.16
64717;BME280;51146;50.274;19.000;2022-07-24T03:43:50;98699.81;;;17.12;62.33
64717;BME280;51146;50.274;19.000;2022-07-24T03:46:16;98696.03;;;17.13;61.77
64717;BME280;51146;50.274;19.000;2022-07-24T03:48:46;98702.19;;;17.15;62.03
64717;BME280;51146;50.274;19.000;2022-07-24T03:51:13;98695.19;;;17.12;61.72
64717;BME280;51146;50.274;19.000;2022-07-24T03:53:40;98697.06;;;17.12;61.60
64717;BME280;51146;50.274;19.000;2022-07-24T03:56:08;98698.63;;;17.14;61.54
64717;BME280;51146;50.274;19.000;2022-07-24T03:58:35;98701.34;;;17.14;61.78
64717;BME280;51146;50.274;19.000;2022-07-24T04:01:06;98703.91;;;17.16;61.57
64717;BME280;51146;50.274;19.000;2022-07-24T04:03:34;98705.47;;;17.19;61.14
64717;BME280;51146;50.274;19.000;2022-07-24T04:06:02;98709.38;;;17.16;61.47
64717;BME280;51146;50.274;19.000;2022-07-24T04:08:30;98711.09;;;17.17;61.31
64717;BME280;51146;50.274;19.000;2022-07-24T04:10:57;98706.34;;;17.19;60.72
64717;BME280;51146;50.274;19.000;2022-07-24T04:13:29;98713.50;;;17.20;60.83
64717;BME280;51146;50.274;19.000;2022-07-24T04:15:57;98713.88;;;17.25;61.02
64717;BME280;51146;50.274;19.000;2022-07-24T04:18:25;98716.28;;;17.28;60.74
64717;BME280;51146;50.274;19.000;2022-07-24T04:20:52;98708.78;;;17.30;60.70
64717;BME280;51146;50.274;19.000;2022-07-24T04:23:19;98721.81;;;17.37;60.78
64717;BME280;51146;50.274;19.000;2022-07-24T04:25:45;98724.75;;;17.43;60.79
64717;BME280;51146;50.274;19.000;2022-07-24T04:28:12;98722.91;;;17.44;60.84
64717;BME280;51146;50.274;19.000;2022-07-24T04:30:39;98730.63;;;17.48;60.45
64717;BME280;51146;50.274;19.000;2022-07-24T04:33:06;98719.06;;;17.54;60.13
64717;BME280;51146;50.274;19.000;2022-07-24T04:35:33;98738.41;;;17.61;60.35
64717;BME280;51146;50.274;19.000;2022-07-24T04:38:00;98734.34;;;17.65;59.76
64717;BME280;51146;50.274;19.000;2022-07-24T04:40:26;98740.34;;;17.69;60.18
64717;BME280;51146;50.274;19.000;2022-07-24T04:42:53;98743.22;;;17.67;59.92
64717;BME280;51146;50.274;19.000;2022-07-24T04:45:20;98744.44;;;17.73;59.66
64717;BME280;51146;50.274;19.000;2022-07-24T04:47:47;98750.97;;;17.80;60.10
64717;BME280;51146;50.274;19.000;2022-07-24T04:50:13;98753.06;;;17.86;59.31
64717;BME280;51146;50.274;19.000;2022-07-24T04:52:41;98754.75;;;17.87;59.20
64717;BME280;51146;50.274;19.000;2022-07-24T04:55:09;98752.56;;;17.91;59.40
64717;BME280;51146;50.274;19.000;2022-07-24T04:57:36;98749.34;;;17.96;58.79
64717;BME280;51146;50.274;19.000;2022-07-24T05:00:05;98750.75;;;18.00;58.74
64717;BME280;51146;50.274;19.000;2022-07-24T05:02:33;98761.19;;;18.04;58.88
64717;BME280;51146;50.274;19.000;2022-07-24T05:05:00;98754.53;;;18.07;58.53
64717;BME280;51146;50.274;19.000;2022-07-24T05:07:26;98767.72;;;18.11;58.30
64717;BME280;51146;50.274;19.000;2022-07-24T05:09:56;98768.25;;;18.15;58.57
64717;BME280;51146;50.274;19.000;2022-07-24T05:12:25;98774.88;;;18.12;58.06
64717;BME280;51146;50.274;19.000;2022-07-24T05:14:52;98764.81;;;18.13;58.46
64717;BME280;51146;50.274;19.000;2022-07-24T05:17:19;98770.47;;;18.20;57.75
64717;BME280;51146;50.274;19.000;2022-07-24T05:19:45;98776.34;;;18.25;58.08
64717;BME280;51146;50.274;19.000;2022-07-24T05:22:12;98773.09;;;18.29;57.15
64717;BME280;51146;50.274;19.000;2022-07-24T05:24:39;98778.94;;;18.35;57.35
64717;BME280;51146;50.274;19.000;2022-07-24T05:27:05;98780.00;;;18.42;57.31
64717;BME280;51146;50.274;19.000;2022-07-24T05:29:38;98777.13;;;18.51;57.16
64717;BME280;51146;50.274;19.000;2022-07-24T05:32:07;98779.56;;;18.63;56.85
64717;BME280;51146;50.274;19.000;2022-07-24T05:34:34;98780.28;;;18.73;57.09
64717;BME280;51146;50.274;19.000;2022-07-24T05:37:06;98776.53;;;18.82;56.32
64717;BME280;51146;50.274;19.000;2022-07-24T05:39:33;98773.81;;;18.90;56.39
64717;BME280;51146;50.274;19.000;2022-07-24T05:42:00;98773.13;;;18.97;56.01
64717;BME280;51146;50.274;19.000;2022-07-24T05:44:26;98770.91;;;19.00;55.65
64717;BME280;51146;50.274;19.000;2022-07-24T05:46:53;98771.13;;;19.07;55.29
64717;BME280;51146;50.274;19.000;2022-07-24T05:49:20;98768.41;;;19.15;54.85
64717;BME280;51146;50.274;19.000;2022-07-24T05:51:47;98769.25;;;19.24;54.36
64717;BME280;51146;50.274;19.000;2022-07-24T05:54:14;98774.75;;;19.32;54.70
64717;BME280;51146;50.274;19.000;2022-07-24T05:56:41;98771.81;;;19.42;54.46
64717;BME280;51146;50.274;19.000;2022-07-24T05:59:07;98773.69;;;19.49;54.11
64717;BME280;51146;50.274;19.000;2022-07-24T06:01:35;98762.22;;;19.54;53.55
64717;BME280;51146;50.274;19.000;2022-07-24T06:04:02;98769.06;;;19.58;53.39
64717;BME280;51146;50.274;19.000;2022-07-24T06:06:28;98769.06;;;19.66;53.34
64717;BME280;51146;50.274;19.000;2022-07-24T06:08:56;98780.84;;;19.75;52.82
64717;BME280;51146;50.274;19.000;2022-07-24T06:11:23;98782.06;;;19.81;52.30
64717;BME280;51146;50.274;19.000;2022-07-24T06:13:52;98783.44;;;19.85;51.95
64717;BME280;51146;50.274;19.000;2022-07-24T06:16:19;98775.56;;;19.90;51.80
64717;BME280;51146;50.274;19.000;2022-07-24T06:18:46;98777.59;;;19.96;51.89
64717;BME280;51146;50.274;19.000;2022-07-24T06:21:13;98780.66;;;20.01;51.22
64717;BME280;51146;50.274;19.000;2022-07-24T06:23:39;98789.03;;;20.08;51.08
64717;BME280;51146;50.274;19.000;2022-07-24T06:26:06;98779.41;;;20.12;50.65
64717;BME280;51146;50.274;19.000;2022-07-24T06:28:33;98785.56;;;20.14;50.64
64717;BME280;51146;50.274;19.000;2022-07-24T06:31:01;98781.28;;;20.20;50.43
64717;BME280;51146;50.274;19.000;2022-07-24T06:33:29;98780.59;;;20.26;50.11
64717;BME280;51146;50.274;19.000;2022-07-24T06:35:56;98779.88;;;20.32;49.97
64717;BME280;51146;50.274;19.000;2022-07-24T06:38:22;98792.53;;;20.41;49.79
64717;BME280;51146;50.274;19.000;2022-07-24T06:40:51;98787.84;;;20.50;49.19
64717;BME280;51146;50.274;19.000;2022-07-24T06:43:18;98787.84;;;20.58;49.31
64717;BME280;51146;50.274;19.000;2022-07-24T06:45:45;98784.41;;;20.64;48.81
64717;BME280;51146;50.274;19.000;2022-07-24T06:48:12;98782.16;;;20.60;48.12
64717;BME280;51146;50.274;19.000;2022-07-24T06:50:39;98797.63;;;20.61;48.14
64717;BME280;51146;50.274;19.000;2022-07-24T06:53:05;98785.97;;;20.59;47.82
64717;BME280;51146;50.274;19.000;2022-07-24T06:55:32;98789.22;;;20.54;47.46
64717;BME280;51146;50.274;19.000;2022-07-24T06:57:59;98792.28;;;20.59;47.11
64717;BME280;51146;50.274;19.000;2022-07-24T07:00:27;98785.25;;;20.65;47.43
64717;BME280;51146;50.274;19.000;2022-07-24T07:02:53;98783.13;;;20.75;46.67
64717;BME280;51146;50.274;19.000;2022-07-24T07:05:20;98787.84;;;20.90;46.41
64717;BME280;51146;50.274;19.000;2022-07-24T07:07:47;98787.38;;;21.09;45.85
64717;BME280;51146;50.274;19.000;2022-07-24T07:10:14;98782.16;;;21.22;45.61
64717;BME280;51146;50.274;19.000;2022-07-24T07:12:41;98778.81;;;21.35;46.02
64717;BME280;51146;50.274;19.000;2022-07-24T07:15:09;98777.44;;;21.54;44.86
64717;BME280;51146;50.274;19.000;2022-07-24T07:17:41;98784.66;;;21.70;45.27
64717;BME280;51146;50.274;19.000;2022-07-24T07:20:09;98779.66;;;21.89;43.93
64717;BME280;51146;50.274;19.000;2022-07-24T07:22:36;98787.69;;;21.98;44.31
64717;BME280;51146;50.274;19.000;2022-07-24T07:25:04;98786.94;;;22.05;43.11
64717;BME280;51146;50.274;19.000;2022-07-24T07:27:34;98788.44;;;22.07;43.57
64717;BME280;51146;50.274;19.000;2022-07-24T07:30:05;98791.75;;;22.17;42.83
64717;BME280;51146;50.274;19.000;2022-07-24T07:32:32;98794.97;;;22.21;42.25
64717;BME280;51146;50.274;19.000;2022-07-24T07:34:59;98798.78;;;22.20;42.54
64717;BME280;51146;50.274;19.000;2022-07-24T07:37:26;98790.34;;;22.07;42.21
64717;BME280;51146;50.274;19.000;2022-07-24T07:39:52;98797.16;;;21.96;42.20
64717;BME280;51146;50.274;19.000;2022-07-24T07:42:20;98793.19;;;21.98;42.50
64717;BME280;51146;50.274;19.000;2022-07-24T07:44:50;98794.59;;;22.09;42.19
64717;BME280;51146;50.274;19.000;2022-07-24T07:47:16;98795.47;;;22.25;42.60
64717;BME280;51146;50.274;19.000;2022-07-24T07:49:43;98795.09;;;22.43;42.13
64717;BME280;51146;50.274;19.000;2022-07-24T07:52:10;98791.97;;;22.60;41.96
64717;BME280;51146;50.274;19.000;2022-07-24T07:54:36;98798.94;;;22.78;42.25
64717;BME280;51146;50.274;19.000;2022-07-24T07:57:03;98792.75;;;22.91;41.56
64717;BME280;51146;50.274;19.000;2022-07-24T07:59:30;98797.84;;;22.94;40.87
64717;BME280;51146;50.274;19.000;2022-07-24T08:01:56;98793.97;;;22.88;41.31
64717;BME280;51146;50.274;19.000;2022-07-24T08:04:23;98791.31;;;22.95;40.71
64717;BME280;51146;50.274;19.000;2022-07-24T08:06:51;98801.22;;;23.11;41.98
64717;BME280;51146;50.274;19.000;2022-07-24T08:09:18;98798.97;;;23.21;40.73
64717;BME280;51146;50.274;19.000;2022-07-24T08:11:47;98798.25;;;23.27;40.56
64717;BME280;51146;50.274;19.000;2022-07-24T08:14:14;98798.38;;;23.41;40.27
64717;BME280;51146;50.274;19.000;2022-07-24T08:16:40;98799.63;;;23.60;39.21
64717;BME280;51146;50.274;19.000;2022-07-24T08:19:07;98803.56;;;23.78;39.10
64717;BME280;51146;50.274;19.000;2022-07-24T08:21:35;98806.47;;;23.92;38.16
64717;BME280;51146;50.274;19.000;2022-07-24T08:24:03;98800.75;;;23.93;38.53
64717;BME280;51146;50.274;19.000;2022-07-24T08:26:30;98811.22;;;23.98;37.38
64717;BME280;51146;50.274;19.000;2022-07-24T08:28:58;98810.63;;;23.81;38.51
64717;BME280;51146;50.274;19.000;2022-07-24T08:31:25;98812.47;;;23.74;38.02
64717;BME280;51146;50.274;19.000;2022-07-24T08:33:53;98802.88;;;23.70;37.49
64717;BME280;51146;50.274;19.000;2022-07-24T08:36:20;98811.88;;;23.57;37.76
64717;BME280;51146;50.274;19.000;2022-07-24T08:38:46;98807.34;;;23.49;38.64
64717;BME280;51146;50.274;19.000;2022-07-24T08:41:13;98807.56;;;23.48;37.64
64717;BME280;51146;50.274;19.000;2022-07-24T08:43:41;98813.84;;;23.42;38.45
64717;BME280;51146;50.274;19.000;2022-07-24T08:46:09;98812.22;;;23.47;36.74
64717;BME280;51146;50.274;19.000;2022-07-24T08:48:42;98810.66;;;23.60;37.32
64717;BME280;51146;50.274;19.000;2022-07-24T08:51:12;98813.91;;;23.91;37.80
64717;BME280;51146;50.274;19.000;2022-07-24T08:53:39;98812.19;;;24.19;38.11
64717;BME280;51146;50.274;19.000;2022-07-24T08:56:09;98812.88;;;24.56;37.10
64717;BME280;51146;50.274;19.000;2022-07-24T08:58:37;98821.28;;;24.89;35.77
64717;BME280;51146;50.274;19.000;2022-07-24T09:01:05;98818.44;;;25.17;35.72
64717;BME280;51146;50.274;19.000;2022-07-24T09:03:42;98806.56;;;25.43;33.69
64717;BME280;51146;50.274;19.000;2022-07-24T09:06:12;98811.06;;;25.64;33.29
64717;BME280;51146;50.274;19.000;2022-07-24T09:08:56;98802.16;;;25.96;33.21
64717;BME280;51146;50.274;19.000;2022-07-24T09:11:23;98808.75;;;26.15;33.22
64717;BME280;51146;50.274;19.000;2022-07-24T09:13:52;98802.53;;;26.19;33.35
64717;BME280;51146;50.274;19.000;2022-07-24T09:16:38;98808.47;;;26.49;33.21
64717;BME280;51146;50.274;19.000;2022-07-24T09:19:09;98808.22;;;27.16;32.09
64717;BME280;51146;50.274;19.000;2022-07-24T09:21:42;98808.25;;;27.73;30.90
64717;BME280;51146;50.274;19.000;2022-07-24T09:24:20;98809.56;;;28.21;30.46
64717;BME280;51146;50.274;19.000;2022-07-24T09:26:50;98806.44;;;28.36;29.37
64717;BME280;51146;50.274;19.000;2022-07-24T09:29:17;98805.34;;;28.92;30.35
64717;BME280;51146;50.274;19.000;2022-07-24T09:32:01;98810.25;;;29.69;28.99
64717;BME280;51146;50.274;19.000;2022-07-24T09:34:37;98811.81;;;30.43;28.04
64717;BME280;51146;50.274;19.000;2022-07-24T09:37:06;98811.41;;;31.44;26.79
64717;BME280;51146;50.274;19.000;2022-07-24T09:39:35;98805.19;;;32.38;24.51
64717;BME280;51146;50.274;19.000;2022-07-24T09:42:04;98813.06;;;33.24;23.31
64717;BME280;51146;50.274;19.000;2022-07-24T09:44:32;98813.19;;;33.94;22.31
64717;BME280;51146;50.274;19.000;2022-07-24T09:47:00;98809.53;;;34.74;21.35
64717;BME280;51146;50.274;19.000;2022-07-24T09:49:27;98803.94;;;35.47;20.15
64717;BME280;51146;50.274;19.000;2022-07-24T09:54:34;98795.53;;;36.45;19.10
64717;BME280;51146;50.274;19.000;2022-07-24T09:59:57;98795.78;;;37.68;17.40
64717;BME280;51146;50.274;19.000;2022-07-24T10:02:30;98808.69;;;37.35;18.09
64717;BME280;51146;50.274;19.000;2022-07-24T10:04:59;98805.09;;;36.28;18.26
64717;BME280;51146;50.274;19.000;2022-07-24T10:07:27;98808.19;;;36.37;18.30
64717;BME280;51146;50.274;19.000;2022-07-24T10:09:57;98808.53;;;37.06;18.20
64717;BME280;51146;50.274;19.000;2022-07-24T10:12:26;98796.03;;;37.77;18.14
64717;BME280;51146;50.274;19.000;2022-07-24T10:14:56;98786.59;;;38.75;17.40
64717;BME280;51146;50.274;19.000;2022-07-24T10:17:37;98798.38;;;39.82;16.32
64717;BME280;51146;50.274;19.000;2022-07-24T10:20:10;98789.81;;;40.67;16.04
64717;BME280;51146;50.274;19.000;2022-07-24T10:23:04;98785.44;;;41.38;14.51
64717;BME280;51146;50.274;19.000;2022-07-24T10:26:04;98788.16;;;41.66;14.29
64717;BME280;51146;50.274;19.000;2022-07-24T10:31:04;98785.59;;;42.24;13.68
64717;BME280;51146;50.274;19.000;2022-07-24T10:33:31;98791.84;;;42.34;12.68
64717;BME280;51146;50.274;19.000;2022-07-24T10:36:00;98780.47;;;42.34;12.65
64717;BME280;51146;50.274;19.000;2022-07-24T10:38:38;98783.38;;;42.12;13.17
64717;BME280;51146;50.274;19.000;2022-07-24T10:41:15;98781.50;;;42.39;13.24
64717;BME280;51146;50.274;19.000;2022-07-24T10:44:18;98777.84;;;42.38;13.08
64717;BME280;51146;50.274;19.000;2022-07-24T10:47:03;98778.41;;;42.49;13.57
64717;BME280;51146;50.274;19.000;2022-07-24T10:49:45;98780.66;;;42.69;12.53
64717;BME280;51146;50.274;19.000;2022-07-24T10:52:30;98780.59;;;42.52;12.88
64717;BME280;51146;50.274;19.000;2022-07-24T10:55:23;98770.88;;;42.84;12.60
64717;BME280;51146;50.274;19.000;2022-07-24T10:58:13;98780.28;;;42.62;12.40
64717;BME280;51146;50.274;19.000;2022-07-24T11:00:47;98778.78;;;42.25;12.18
64717;BME280;51146;50.274;19.000;2022-07-24T11:03:23;98785.69;;;42.10;11.08
64717;BME280;51146;50.274;19.000;2022-07-24T11:06:06;98782.84;;;42.10;11.27
64717;BME280;51146;50.274;19.000;2022-07-24T11:08:41;98779.38;;;42.13;12.01
64717;BME280;51146;50.274;19.000;2022-07-24T11:11:19;98776.84;;;42.43;11.76
64717;BME280;51146;50.274;19.000;2022-07-24T11:13:54;98773.94;;;42.57;11.28
64717;BME280;51146;50.274;19.000;2022-07-24T11:16:28;98769.91;;;42.98;10.93
64717;BME280;51146;50.274;19.000;2022-07-24T11:21:42;98775.84;;;43.71;11.11
64717;BME280;51146;50.274;19.000;2022-07-24T11:29:30;98767.28;;;43.97;10.42
64717;BME280;51146;50.274;19.000;2022-07-24T11:32:02;98767.19;;;44.23;10.73
64717;BME280;51146;50.274;19.000;2022-07-24T11:34:30;98766.63;;;44.56;9.62
64717;BME280;51146;50.274;19.000;2022-07-24T11:36:59;98766.34;;;44.40;10.21
64717;BME280;51146;50.274;19.000;2022-07-24T11:39:35;98763.31;;;44.45;10.24
64717;BME280;51146;50.274;19.000;2022-07-24T11:42:05;98763.34;;;44.37;10.74
64717;BME280;51146;50.274;19.000;2022-07-24T11:44:43;98760.91;;;44.56;10.75
64717;BME280;51146;50.274;19.000;2022-07-24T11:47:18;98751.13;;;44.75;10.40
64717;BME280;51146;50.274;19.000;2022-07-24T11:49:59;98753.94;;;44.83;9.68
64717;BME280;51146;50.274;19.000;2022-07-24T11:52:36;98763.28;;;44.54;9.84
64717;BME280;51146;50.274;19.000;2022-07-24T11:55:10;98763.84;;;44.21;10.19
64717;BME280;51146;50.274;19.000;2022-07-24T11:57:46;98762.53;;;44.19;10.20
64717;BME280;51146;50.274;19.000;2022-07-24T12:00:33;98764.56;;;44.09;10.72
64717;BME280;51146;50.274;19.000;2022-07-24T12:03:00;98763.53;;;44.23;10.14
64717;BME280;51146;50.274;19.000;2022-07-24T12:05:33;98751.94;;;44.37;10.17
64717;BME280;51146;50.274;19.000;2022-07-24T12:08:03;98753.53;;;44.55;10.09
64717;BME280;51146;50.274;19.000;2022-07-24T12:10:31;98756.69;;;44.62;9.67
64717;BME280;51146;50.274;19.000;2022-07-24T12:12:58;98750.88;;;44.50;9.87
64717;BME280;51146;50.274;19.000;2022-07-24T12:15:26;98754.53;;;44.59;10.47
64717;BME280;51146;50.274;19.000;2022-07-24T12:20:34;98740.09;;;44.94;9.54
64717;BME280;51146;50.274;19.000;2022-07-24T12:23:03;98749.13;;;44.66;9.70
64717;BME280;51146;50.274;19.000;2022-07-24T12:25:31;98749.66;;;44.60;10.58
64717;BME280;51146;50.274;19.000;2022-07-24T12:30:51;98750.84;;;44.88;9.84
64717;BME280;51146;50.274;19.000;2022-07-24T12:33:26;98742.59;;;44.66;9.71
64717;BME280;51146;50.274;19.000;2022-07-24T12:36:07;98740.16;;;44.00;9.61
64717;BME280;51146;50.274;19.000;2022-07-24T12:38:57;98741.53;;;43.50;10.57
64717;BME280;51146;50.274;19.000;2022-07-24T12:41:25;98744.03;;;43.51;10.29
64717;BME280;51146;50.274;19.000;2022-07-24T12:43:55;98743.38;;;43.72;10.47
64717;BME280;51146;50.274;19.000;2022-07-24T12:46:30;98746.03;;;43.95;9.90
64717;BME280;51146;50.274;19.000;2022-07-24T12:49:17;98740.66;;;44.02;9.81
64717;BME280;51146;50.274;19.000;2022-07-24T12:51:45;98733.59;;;44.08;10.31
64717;BME280;51146;50.274;19.000;2022-07-24T12:54:34;98738.44;;;44.16;9.93
64717;BME280;51146;50.274;19.000;2022-07-24T12:57:08;98740.06;;;43.70;10.22
64717;BME280;51146;50.274;19.000;2022-07-24T12:59:46;98734.69;;;43.60;9.96
64717;BME280;51146;50.274;19.000;2022-07-24T13:02:21;98740.16;;;43.04;10.23
64717;BME280;51146;50.274;19.000;2022-07-24T13:04:52;98732.50;;;42.55;11.00
64717;BME280;51146;50.274;19.000;2022-07-24T13:07:22;98728.47;;;42.48;10.74
64717;BME280;51146;50.274;19.000;2022-07-24T13:09:49;98732.06;;;42.71;11.27
64717;BME280;51146;50.274;19.000;2022-07-24T13:12:17;98725.97;;;42.95;11.47
64717;BME280;51146;50.274;19.000;2022-07-24T13:14:44;98734.84;;;43.28;10.80
64717;BME280;51146;50.274;19.000;2022-07-24T13:17:14;98718.97;;;43.45;10.70
64717;BME280;51146;50.274;19.000;2022-07-24T13:19:43;98724.84;;;43.57;10.05
64717;BME280;51146;50.274;19.000;2022-07-24T13:22:12;98722.31;;;43.64;9.73
64717;BME280;51146;50.274;19.000;2022-07-24T13:24:39;98718.81;;;43.32;10.33